createdAt,value
2023-07-03T00:00:20.186Z,13.80
2023-07-03T00:02:51.004Z,13.70
2023-07-03T00:05:18.571Z,13.70
2023-07-03T00:07:48.116Z,13.70
2023-07-03T00:10:16.250Z,13.60
2023-07-03T00:12:43.957Z,13.60
2023-07-03T00:15:11.796Z,13.60
2023-07-03T00:17:38.880Z,13.60
2023-07-03T00:20:07.666Z,13.50
2023-07-03T00:22:34.817Z,13.50
2023-07-03T00:25:01.718Z,13.50
2023-07-03T00:27:28.699Z,13.40
2023-07-03T00:29:55.570Z,13.40
2023-07-03T00:32:22.517Z,13.40
2023-07-03T00:34:50.186Z,13.40
2023-07-03T00:37:17.189Z,13.30
2023-07-03T00:39:44.136Z,13.30
2023-07-03T00:42:11.192Z,13.30
2023-07-03T00:44:38.157Z,13.30
2023-07-03T00:47:06.169Z,13.30
2023-07-03T00:49:33.357Z,13.30
2023-07-03T00:52:01.834Z,13.30
2023-07-03T00:54:29.034Z,13.30
2023-07-03T00:56:56.072Z,13.30
2023-07-03T00:59:23.304Z,13.30
2023-07-03T01:02:11.665Z,13.30
2023-07-03T01:04:47.636Z,13.30
2023-07-03T01:07:17.594Z,13.30
2023-07-03T01:09:54.319Z,13.30
2023-07-03T01:12:24.458Z,13.40
2023-07-03T01:14:51.946Z,13.30
2023-07-03T01:17:19.621Z,13.30
2023-07-03T01:19:49.174Z,13.40
2023-07-03T01:22:28.037Z,13.40
2023-07-03T01:25:01.327Z,13.40
2023-07-03T01:27:35.499Z,13.40
2023-07-03T01:30:07.504Z,13.40
2023-07-03T01:32:36.544Z,13.40
2023-07-03T01:35:05.247Z,13.40
2023-07-03T01:37:35.953Z,13.40
2023-07-03T01:40:03.428Z,13.50
2023-07-03T01:42:32.093Z,13.50
2023-07-03T01:44:58.958Z,13.50
2023-07-03T01:47:25.935Z,13.50
2023-07-03T01:49:52.875Z,13.50
2023-07-03T01:52:29.661Z,13.50
2023-07-03T01:55:23.887Z,13.50
2023-07-03T01:57:53.857Z,13.60
2023-07-03T02:00:28.353Z,13.60
2023-07-03T02:02:58.711Z,13.60
2023-07-03T02:05:30.628Z,13.60
2023-07-03T02:08:01.525Z,13.60
2023-07-03T02:10:28.674Z,13.60
2023-07-03T02:12:55.621Z,13.70
2023-07-03T02:15:22.594Z,13.70
2023-07-03T02:17:54.620Z,13.70
2023-07-03T02:20:22.017Z,13.70
2023-07-03T02:22:49.058Z,13.70
2023-07-03T02:25:17.200Z,13.70
2023-07-03T02:27:44.446Z,13.70
2023-07-03T02:30:12.306Z,13.80
2023-07-03T02:32:41.553Z,13.80
2023-07-03T02:35:10.396Z,13.80
2023-07-03T02:37:37.987Z,13.80
2023-07-03T02:40:11.468Z,13.80
2023-07-03T02:42:38.396Z,13.90
2023-07-03T02:45:06.713Z,13.90
2023-07-03T02:47:38.218Z,13.90
2023-07-03T02:50:06.585Z,13.90
2023-07-03T02:52:33.548Z,14.00
2023-07-03T02:55:00.837Z,13.90
2023-07-03T02:57:27.786Z,14.00
2023-07-03T02:59:54.864Z,14.00
2023-07-03T03:02:22.024Z,14.00
2023-07-03T03:04:49.321Z,14.00
2023-07-03T03:07:16.655Z,14.10
2023-07-03T03:09:43.790Z,14.10
2023-07-03T03:12:10.861Z,14.10
2023-07-03T03:14:38.134Z,14.10
2023-07-03T03:17:05.322Z,14.10
2023-07-03T03:19:32.330Z,14.10
2023-07-03T03:21:59.297Z,14.00
2023-07-03T03:24:27.281Z,14.10
2023-07-03T03:26:54.327Z,14.10
2023-07-03T03:29:21.319Z,14.20
2023-07-03T03:31:48.234Z,14.20
2023-07-03T03:34:15.405Z,14.20
2023-07-03T03:36:42.448Z,14.20
2023-07-03T03:39:09.501Z,14.20
2023-07-03T03:41:36.425Z,14.20
2023-07-03T03:44:03.380Z,14.10
2023-07-03T03:46:30.400Z,14.10
2023-07-03T03:48:57.337Z,14.00
2023-07-03T03:51:24.416Z,14.00
2023-07-03T03:53:51.326Z,13.90
2023-07-03T03:56:20.807Z,13.90
2023-07-03T03:58:48.803Z,13.90
2023-07-03T04:01:15.829Z,13.90
2023-07-03T04:03:45.472Z,13.90
2023-07-03T04:06:17.554Z,13.90
2023-07-03T04:08:45.182Z,13.80
2023-07-03T04:11:12.701Z,13.80
2023-07-03T04:13:39.784Z,13.80
2023-07-03T04:16:06.917Z,13.80
2023-07-03T04:18:33.944Z,13.90
2023-07-03T04:21:01.165Z,13.90
2023-07-03T04:23:28.892Z,13.80
2023-07-03T04:25:55.910Z,13.80
2023-07-03T04:28:24.216Z,13.70
2023-07-03T04:30:51.379Z,13.70
2023-07-03T04:33:18.654Z,13.70
2023-07-03T04:35:47.683Z,13.60
2023-07-03T04:38:18.887Z,13.70
2023-07-03T04:40:47.080Z,13.70
2023-07-03T04:43:17.230Z,13.70
2023-07-03T04:45:49.946Z,13.70
2023-07-03T04:48:18.129Z,13.70
2023-07-03T04:50:50.761Z,13.70
2023-07-03T04:53:22.506Z,13.70
2023-07-03T04:55:50.634Z,13.70
2023-07-03T04:58:18.136Z,13.70
2023-07-03T05:00:45.060Z,13.70
2023-07-03T05:03:12.104Z,13.80
2023-07-03T05:05:39.136Z,13.80
2023-07-03T05:08:06.138Z,13.80
2023-07-03T05:10:33.016Z,13.80
2023-07-03T05:12:59.936Z,13.70
2023-07-03T05:15:26.909Z,13.70
2023-07-03T05:17:58.084Z,13.70
2023-07-03T05:20:26.983Z,13.80
2023-07-03T05:22:54.162Z,13.90
2023-07-03T05:25:21.118Z,13.90
2023-07-03T05:27:48.974Z,14.00
2023-07-03T05:30:16.397Z,14.00
2023-07-03T05:32:43.429Z,14.10
2023-07-03T05:35:11.187Z,14.20
2023-07-03T05:37:38.352Z,14.20
2023-07-03T05:40:08.129Z,14.30
2023-07-03T05:42:36.503Z,14.30
2023-07-03T05:45:04.259Z,14.30
2023-07-03T05:47:31.237Z,14.40
2023-07-03T05:49:58.942Z,14.40
2023-07-03T05:52:26.327Z,14.40
2023-07-03T05:54:53.827Z,14.40
2023-07-03T05:57:21.625Z,14.40
2023-07-03T05:59:49.798Z,14.40
2023-07-03T06:02:17.547Z,14.30
2023-07-03T06:04:45.097Z,14.30
2023-07-03T06:07:12.141Z,14.20
2023-07-03T06:09:39.297Z,14.10
2023-07-03T06:12:07.890Z,14.10
2023-07-03T06:14:35.603Z,14.10
2023-07-03T06:17:02.888Z,14.10
2023-07-03T06:19:31.238Z,14.10
2023-07-03T06:21:58.532Z,14.00
2023-07-03T06:24:25.995Z,14.00
2023-07-03T06:26:53.568Z,14.00
2023-07-03T06:29:21.033Z,14.00
2023-07-03T06:31:48.729Z,14.10
2023-07-03T06:34:15.799Z,14.10
2023-07-03T06:36:43.051Z,14.20
2023-07-03T06:39:10.756Z,14.30
2023-07-03T06:41:38.166Z,14.30
2023-07-03T06:44:06.936Z,14.40
2023-07-03T06:46:34.637Z,14.40
2023-07-03T06:49:02.243Z,14.50
2023-07-03T06:51:29.770Z,14.50
2023-07-03T06:53:57.370Z,14.60
2023-07-03T06:56:25.072Z,14.60
2023-07-03T06:58:52.328Z,14.70
2023-07-03T07:01:25.677Z,14.70
2023-07-03T07:03:52.825Z,14.70
2023-07-03T07:06:25.751Z,14.70
2023-07-03T07:08:54.047Z,14.70
2023-07-03T07:11:26.457Z,14.60
2023-07-03T07:13:57.097Z,14.70
2023-07-03T07:16:26.789Z,14.60
2023-07-03T07:18:56.336Z,14.60
2023-07-03T07:21:24.576Z,14.60
2023-07-03T07:23:54.651Z,14.60
2023-07-03T07:26:24.175Z,14.70
2023-07-03T07:28:51.258Z,14.60
2023-07-03T07:31:26.292Z,14.60
2023-07-03T07:33:53.898Z,14.60
2023-07-03T07:36:23.601Z,14.60
2023-07-03T07:38:53.075Z,14.70
2023-07-03T07:41:21.669Z,14.70
2023-07-03T07:43:49.683Z,14.80
2023-07-03T07:46:16.995Z,14.90
2023-07-03T07:48:44.244Z,15.00
2023-07-03T07:51:12.558Z,15.00
2023-07-03T07:53:40.138Z,15.20
2023-07-03T07:56:09.390Z,15.30
2023-07-03T07:58:37.272Z,15.30
2023-07-03T08:01:04.861Z,15.30
2023-07-03T08:03:32.244Z,15.30
2023-07-03T08:06:05.139Z,15.40
2023-07-03T08:08:33.482Z,15.40
2023-07-03T08:11:03.078Z,15.40
2023-07-03T08:13:31.966Z,15.40
2023-07-03T08:15:59.549Z,15.40
2023-07-03T08:18:27.214Z,15.40
2023-07-03T08:20:54.666Z,15.50
2023-07-03T08:23:22.333Z,15.50
2023-07-03T08:25:54.306Z,15.60
2023-07-03T08:28:22.271Z,15.60
2023-07-03T08:30:49.171Z,15.60
2023-07-03T08:33:16.345Z,15.70
2023-07-03T08:38:13.541Z,16.10
2023-07-03T08:40:40.734Z,16.20
2023-07-03T08:43:12.106Z,16.30
2023-07-03T08:45:44.271Z,16.30
2023-07-03T08:48:33.327Z,16.30
2023-07-03T08:51:03.319Z,16.20
2023-07-03T08:53:41.404Z,16.10
2023-07-03T08:56:27.306Z,16.00
2023-07-03T08:58:56.918Z,15.90
2023-07-03T09:01:45.187Z,15.80
2023-07-03T09:04:26.284Z,15.50
2023-07-03T09:07:03.742Z,15.20
2023-07-03T09:09:42.624Z,15.10
2023-07-03T09:12:35.612Z,15.10
2023-07-03T09:15:15.711Z,15.10
2023-07-03T09:17:43.812Z,15.20
2023-07-03T09:20:13.474Z,15.20
2023-07-03T09:22:59.033Z,15.30
2023-07-03T09:25:37.767Z,15.30
2023-07-03T09:28:08.233Z,15.40
2023-07-03T09:30:35.170Z,15.40
2023-07-03T09:33:02.217Z,15.50
2023-07-03T09:35:37.670Z,15.40
2023-07-03T09:38:10.238Z,15.40
2023-07-03T09:40:39.278Z,15.30
2023-07-03T09:43:19.739Z,15.20
2023-07-03T09:45:47.632Z,15.10
2023-07-03T09:48:28.364Z,15.10
2023-07-03T09:51:05.520Z,14.90
2023-07-03T09:53:38.126Z,14.80
2023-07-03T09:56:12.114Z,14.60
2023-07-03T09:58:46.878Z,14.40
2023-07-03T10:07:00.016Z,14.00
2023-07-03T10:12:05.546Z,13.90
2023-07-03T10:14:58.740Z,13.90
2023-07-03T10:17:35.338Z,13.90
2023-07-03T10:20:11.074Z,13.90
2023-07-03T10:22:44.486Z,13.90
2023-07-03T10:25:19.603Z,14.00
2023-07-03T10:27:49.018Z,14.00
2023-07-03T10:30:19.662Z,14.10
2023-07-03T10:32:51.366Z,14.20
2023-07-03T10:35:28.787Z,14.30
2023-07-03T10:38:12.266Z,14.40
2023-07-03T10:40:57.671Z,14.50
2023-07-03T10:43:29.072Z,14.50
2023-07-03T10:45:56.566Z,14.40
2023-07-03T10:48:27.862Z,14.40
2023-07-03T10:51:07.100Z,14.40
2023-07-03T10:53:50.515Z,14.40
2023-07-03T10:56:26.403Z,14.50
2023-07-03T10:58:53.175Z,14.50
2023-07-03T11:01:46.304Z,14.50
2023-07-03T11:04:25.367Z,14.60
2023-07-03T11:07:00.772Z,14.60
2023-07-03T11:09:41.054Z,14.60
2023-07-03T11:12:23.198Z,14.60
2023-07-03T11:15:07.823Z,14.50
2023-07-03T11:20:23.309Z,14.50
2023-07-03T11:23:17.521Z,14.50
2023-07-03T11:28:34.783Z,14.50
2023-07-03T11:31:04.032Z,14.50
2023-07-03T11:36:05.923Z,14.70
2023-07-03T11:43:56.415Z,15.20
2023-07-03T11:46:25.715Z,15.30
2023-07-03T11:48:57.546Z,15.40
2023-07-03T11:51:33.984Z,15.40
2023-07-03T11:54:12.835Z,15.40
2023-07-03T11:56:42.761Z,15.40
2023-07-03T11:59:26.426Z,15.30
2023-07-03T12:02:14.699Z,15.40
2023-07-03T12:04:47.746Z,15.40
2023-07-03T12:07:21.596Z,15.40
2023-07-03T12:09:49.946Z,15.50
2023-07-03T12:12:25.723Z,15.60
2023-07-03T12:14:56.197Z,15.80
2023-07-03T12:17:28.952Z,16.00
2023-07-03T12:20:07.544Z,16.10
2023-07-03T12:22:53.614Z,16.30
2023-07-03T12:25:23.056Z,16.30
2023-07-03T12:27:51.426Z,16.30
2023-07-03T12:30:38.112Z,16.30
2023-07-03T12:33:05.105Z,16.40
2023-07-03T12:35:36.635Z,16.40
2023-07-03T12:38:09.050Z,16.50
2023-07-03T12:40:46.314Z,16.30
2023-07-03T12:43:18.930Z,16.20
2023-07-03T12:45:54.012Z,16.20
2023-07-03T12:48:23.415Z,16.20
2023-07-03T12:50:54.735Z,16.10
2023-07-03T12:53:22.172Z,16.00
2023-07-03T12:55:56.196Z,15.90
2023-07-03T12:58:24.521Z,15.90
2023-07-03T13:01:03.030Z,15.90
2023-07-03T13:03:30.044Z,15.90
2023-07-03T13:05:57.222Z,15.90
2023-07-03T13:08:25.603Z,16.10
2023-07-03T13:11:00.439Z,16.30
2023-07-03T13:13:28.025Z,16.30
2023-07-03T13:15:55.129Z,16.30
2023-07-03T13:18:25.837Z,16.30
2023-07-03T13:20:59.674Z,16.30
2023-07-03T13:23:33.099Z,16.20
2023-07-03T13:26:01.478Z,16.20
2023-07-03T13:28:34.210Z,16.10
2023-07-03T13:31:19.881Z,16.10
2023-07-03T13:34:06.805Z,16.00
2023-07-03T13:36:34.042Z,16.10
2023-07-03T13:39:05.015Z,16.00
2023-07-03T13:41:32.648Z,16.00
2023-07-03T13:44:00.033Z,16.10
2023-07-03T13:46:28.126Z,16.10
2023-07-03T13:48:55.807Z,16.20
2023-07-03T13:51:23.245Z,16.20
2023-07-03T13:53:56.297Z,16.20
2023-07-03T13:56:31.249Z,16.20
2023-07-03T13:58:58.158Z,16.30
2023-07-03T14:01:26.970Z,16.40
2023-07-03T14:03:54.345Z,16.50
2023-07-03T14:06:21.805Z,16.60
2023-07-03T14:08:49.096Z,16.60
2023-07-03T14:11:16.722Z,16.60
2023-07-03T14:13:46.873Z,16.70
2023-07-03T14:16:14.413Z,16.60
2023-07-03T14:18:41.348Z,16.60
2023-07-03T14:21:12.696Z,16.60
2023-07-03T14:23:39.576Z,16.50
2023-07-03T14:26:06.439Z,16.50
2023-07-03T14:28:33.353Z,16.60
2023-07-03T14:31:00.386Z,16.50
2023-07-03T14:33:27.305Z,16.60
2023-07-03T14:35:54.214Z,16.60
2023-07-03T14:38:21.128Z,16.70
2023-07-03T14:40:48.755Z,16.70
2023-07-03T14:43:15.833Z,16.70
2023-07-03T14:45:42.823Z,16.70
2023-07-03T14:48:11.125Z,16.60
2023-07-03T14:50:39.734Z,16.60
2023-07-03T14:53:06.596Z,16.60
2023-07-03T14:55:33.568Z,16.60
2023-07-03T14:58:01.555Z,16.60
2023-07-03T15:00:28.469Z,16.60
2023-07-03T15:02:55.480Z,16.50
2023-07-03T15:05:22.548Z,16.50
2023-07-03T15:07:52.045Z,16.60
2023-07-03T15:10:20.233Z,16.60
2023-07-03T15:12:48.043Z,16.70
2023-07-03T15:15:14.954Z,16.80
2023-07-03T15:17:41.962Z,16.90
2023-07-03T15:20:09.717Z,17.00
2023-07-03T15:22:36.714Z,17.10
2023-07-03T15:25:03.854Z,17.10
2023-07-03T15:27:32.018Z,17.20
2023-07-03T15:29:59.082Z,17.30
2023-07-03T15:32:26.160Z,17.30
2023-07-03T15:34:54.852Z,17.30
2023-07-03T15:37:22.436Z,17.20
2023-07-03T15:39:49.364Z,17.20
2023-07-03T15:42:16.467Z,17.10
2023-07-03T15:44:43.480Z,17.00
2023-07-03T15:47:10.954Z,16.90
2023-07-03T15:49:38.012Z,16.90
2023-07-03T15:52:06.346Z,16.90
2023-07-03T15:54:36.377Z,16.90
2023-07-03T15:57:05.299Z,16.80
2023-07-03T15:59:32.327Z,16.80
2023-07-03T16:01:59.268Z,16.60
2023-07-03T16:04:26.840Z,16.30
2023-07-03T16:06:53.742Z,16.10
2023-07-03T16:09:20.780Z,15.90
2023-07-03T16:11:48.531Z,15.70
2023-07-03T16:14:15.860Z,15.70
2023-07-03T16:16:42.850Z,15.70
2023-07-03T16:19:09.960Z,15.60
2023-07-03T16:21:37.658Z,15.60
2023-07-03T16:24:05.378Z,15.60
2023-07-03T16:26:32.323Z,15.60
2023-07-03T16:28:59.329Z,15.60
2023-07-03T16:31:29.112Z,15.60
2023-07-03T16:33:58.612Z,15.60
2023-07-03T16:36:28.073Z,15.60
2023-07-03T16:39:00.755Z,15.60
2023-07-03T16:41:30.121Z,15.70
2023-07-03T16:43:58.187Z,15.80
2023-07-03T16:46:28.015Z,15.80
2023-07-03T16:48:56.655Z,15.90
2023-07-03T16:51:24.701Z,16.00
2023-07-03T16:53:51.702Z,16.10
2023-07-03T16:56:22.334Z,16.10
2023-07-03T16:58:50.936Z,16.10
2023-07-03T17:01:23.509Z,16.10
2023-07-03T17:03:52.012Z,16.10
2023-07-03T17:06:22.464Z,16.10
2023-07-03T17:08:50.423Z,16.10
2023-07-03T17:11:17.751Z,16.10
2023-07-03T17:13:45.678Z,16.10
2023-07-03T17:16:12.694Z,16.10
2023-07-03T17:18:39.623Z,16.10
2023-07-03T17:21:06.589Z,16.00
2023-07-03T17:23:33.900Z,16.00
2023-07-03T17:26:01.815Z,16.00
2023-07-03T17:28:29.561Z,16.00
2023-07-03T17:30:56.927Z,16.00
2023-07-03T17:33:24.083Z,15.90
2023-07-03T17:35:52.582Z,16.00
2023-07-03T17:38:19.996Z,15.90
2023-07-03T17:40:49.577Z,15.90
2023-07-03T17:43:23.643Z,15.90
2023-07-03T17:45:55.098Z,15.90
2023-07-03T17:48:23.580Z,15.90
2023-07-03T17:50:57.777Z,15.90
2023-07-03T17:53:33.995Z,16.00
2023-07-03T17:56:01.152Z,15.90
2023-07-03T17:58:28.078Z,15.80
2023-07-03T18:01:02.036Z,15.80
2023-07-03T18:03:30.417Z,15.70
2023-07-03T18:05:58.256Z,15.70
2023-07-03T18:08:25.918Z,15.60
2023-07-03T18:10:52.906Z,15.50
2023-07-03T18:13:20.049Z,15.50
2023-07-03T18:15:50.006Z,15.40
2023-07-03T18:18:21.714Z,15.40
2023-07-03T18:20:49.221Z,15.40
2023-07-03T18:23:16.217Z,15.40
2023-07-03T18:25:43.205Z,15.40
2023-07-03T18:28:10.190Z,15.30
2023-07-03T18:30:37.536Z,15.30
2023-07-03T18:33:04.624Z,15.30
2023-07-03T18:35:36.443Z,15.30
2023-07-03T18:38:04.134Z,15.30
2023-07-03T18:40:31.115Z,15.30
2023-07-03T18:42:58.065Z,15.30
2023-07-03T18:45:24.952Z,15.30
2023-07-03T18:47:52.004Z,15.30
2023-07-03T18:50:18.963Z,15.30
2023-07-03T18:52:45.959Z,15.30
2023-07-03T18:55:13.511Z,15.30
2023-07-03T18:57:40.593Z,15.20
2023-07-03T19:00:08.514Z,15.20
2023-07-03T19:02:35.454Z,15.20
2023-07-03T19:05:05.391Z,15.20
2023-07-03T19:07:33.750Z,15.10
2023-07-03T19:10:16.336Z,15.00
2023-07-03T19:12:44.414Z,15.10
2023-07-03T19:15:11.450Z,15.00
2023-07-03T19:17:38.365Z,15.00
2023-07-03T19:20:07.174Z,14.90
2023-07-03T19:22:34.156Z,14.90
2023-07-03T19:25:01.177Z,14.90
2023-07-03T19:27:28.252Z,14.90
2023-07-03T19:29:55.317Z,14.90
2023-07-03T19:32:23.046Z,14.80
2023-07-03T19:34:54.725Z,14.80
2023-07-03T19:37:21.685Z,14.70
2023-07-03T19:39:48.635Z,14.70
2023-07-03T19:42:15.543Z,14.70
2023-07-03T19:44:42.518Z,14.70
2023-07-03T19:47:09.515Z,14.70
2023-07-03T19:49:36.450Z,14.60
2023-07-03T19:52:04.099Z,14.60
2023-07-03T19:54:31.088Z,14.50
2023-07-03T19:56:58.402Z,14.50
2023-07-03T19:59:25.305Z,14.50
2023-07-03T20:01:53.697Z,14.40
2023-07-03T20:04:22.225Z,14.40
2023-07-03T20:06:49.371Z,14.40
2023-07-03T20:09:16.283Z,14.40
2023-07-03T20:11:43.320Z,14.40
2023-07-03T20:14:10.532Z,14.30
2023-07-03T20:16:39.217Z,14.30
2023-07-03T20:19:06.148Z,14.30
2023-07-03T20:21:33.380Z,14.30
2023-07-03T20:24:00.304Z,14.30
2023-07-03T20:26:28.236Z,14.30
2023-07-03T20:28:55.820Z,14.30
2023-07-03T20:31:23.915Z,14.20
2023-07-03T20:33:50.945Z,14.20
2023-07-03T20:36:19.466Z,14.20
2023-07-03T20:38:46.437Z,14.10
2023-07-03T20:41:15.990Z,14.10
2023-07-03T20:43:44.546Z,14.10
2023-07-03T20:46:14.635Z,14.00
2023-07-03T20:48:42.938Z,14.10
2023-07-03T20:51:15.399Z,14.10
2023-07-03T20:53:54.370Z,14.10
2023-07-03T20:56:35.752Z,14.10
2023-07-03T20:59:03.229Z,14.00
2023-07-03T21:01:35.723Z,14.00
2023-07-03T21:04:05.239Z,14.00
2023-07-03T21:06:35.051Z,13.90
2023-07-03T21:09:02.549Z,13.90
2023-07-03T21:11:31.226Z,13.90
2023-07-03T21:14:00.479Z,13.80
2023-07-03T21:16:27.738Z,13.80
2023-07-03T21:18:54.788Z,13.70
2023-07-03T21:21:32.394Z,13.70
2023-07-03T21:24:01.635Z,13.60
2023-07-03T21:26:28.743Z,13.60
2023-07-03T21:28:56.350Z,13.60
2023-07-03T21:31:28.469Z,13.60
2023-07-03T21:33:55.397Z,13.60
2023-07-03T21:36:24.649Z,13.60
2023-07-03T21:38:54.115Z,13.60
2023-07-03T21:41:22.086Z,13.60
2023-07-03T21:43:51.096Z,13.50
2023-07-03T21:46:19.286Z,13.50
2023-07-03T21:48:46.713Z,13.50
2023-07-03T21:51:16.556Z,13.50
2023-07-03T21:53:44.596Z,13.50
2023-07-03T21:56:17.902Z,13.50
2023-07-03T21:58:45.826Z,13.40
2023-07-03T22:01:17.066Z,13.40
2023-07-03T22:03:44.086Z,13.40
2023-07-03T22:06:10.981Z,13.30
2023-07-03T22:08:37.841Z,13.30
2023-07-03T22:11:04.846Z,13.30
2023-07-03T22:13:31.863Z,13.20
2023-07-03T22:15:58.823Z,13.20
2023-07-03T22:18:26.143Z,13.20
2023-07-03T22:20:53.179Z,13.10
2023-07-03T22:23:30.448Z,13.20
2023-07-03T22:26:01.522Z,13.10
2023-07-03T22:28:29.780Z,13.10
2023-07-03T22:30:57.188Z,13.10
2023-07-03T22:33:24.663Z,13.10
2023-07-03T22:35:53.544Z,13.10
2023-07-03T22:38:21.457Z,13.10
2023-07-03T22:40:52.554Z,13.00
2023-07-03T22:43:20.638Z,13.00
2023-07-03T22:45:48.109Z,13.00
2023-07-03T22:48:15.811Z,13.00
2023-07-03T22:50:43.673Z,13.00
2023-07-03T22:53:11.315Z,12.90
2023-07-03T22:55:40.962Z,12.90
2023-07-03T22:58:10.202Z,12.90
2023-07-03T23:00:40.929Z,12.90
2023-07-03T23:03:08.772Z,12.90
2023-07-03T23:05:47.303Z,12.90
2023-07-03T23:08:16.078Z,12.90
2023-07-03T23:10:54.118Z,12.80
2023-07-03T23:13:22.989Z,12.90
2023-07-03T23:15:54.293Z,12.80
2023-07-03T23:18:21.229Z,12.80
2023-07-03T23:21:02.433Z,12.80
2023-07-03T23:23:32.604Z,12.80
2023-07-03T23:26:01.890Z,12.80
2023-07-03T23:28:32.770Z,12.80
2023-07-03T23:31:01.384Z,12.80
2023-07-03T23:33:30.492Z,12.80
2023-07-03T23:35:58.236Z,12.70
2023-07-03T23:38:27.219Z,12.70
2023-07-03T23:40:57.356Z,12.70
2023-07-03T23:43:24.625Z,12.70
2023-07-03T23:45:53.627Z,12.60
2023-07-03T23:48:20.863Z,12.60
2023-07-03T23:51:00.272Z,12.60
2023-07-03T23:53:27.679Z,12.60
2023-07-03T23:55:55.224Z,12.60
2023-07-03T23:58:22.869Z,12.50
